sensor_id;sensor_type;location;lat;lon;timestamp;pressure;altitude;pressure_sealevel;temperature;humidity
7168;BME280;3625;51.762;14.320;2024-03-02T00:02:06;99749.13;;;10.31;100.00
7168;BME280;3625;51.762;14.320;2024-03-02T00:04:38;99752.63;;;10.32;100.00
7168;BME280;3625;51.762;14.320;2024-03-02T00:07:07;99742.09;;;10.30;100.00
7168;BME280;3625;51.762;14.320;2024-03-02T00:09:36;99749.13;;;10.31;100.00
7168;BME280;3625;51.762;14.320;2024-03-02T00:12:07;99742.97;;;10.31;100.00
7168;BME280;3625;51.762;14.320;2024-03-02T00:14:39;99744.72;;;10.32;100.00
7168;BME280;3625;51.762;14.320;2024-03-02T00:17:16;99736.81;;;10.30;100.00
7168;BME280;3625;51.762;14.320;2024-03-02T00:19:47;99736.94;;;10.27;100.00
7168;BME280;3625;51.762;14.320;2024-03-02T00:22:15;99736.13;;;10.25;100.00
7168;BME280;3625;51.762;14.320;2024-03-02T00:24:44;99736.13;;;10.25;100.00
7168;BME280;3625;51.762;14.320;2024-03-02T00:27:18;99733.47;;;10.25;100.00
7168;BME280;3625;51.762;14.320;2024-03-02T00:29:48;99735.28;;;10.23;100.00
7168;BME280;3625;51.762;14.320;2024-03-02T00:32:17;99737.13;;;10.21;100.00
7168;BME280;3625;51.762;14.320;2024-03-02T00:34:46;99736.38;;;10.17;100.00
7168;BME280;3625;51.762;14.320;2024-03-02T00:37:15;99738.25;;;10.12;100.00
7168;BME280;3625;51.762;14.320;2024-03-02T00:39:49;99733.03;;;10.11;100.00
7168;BME280;3625;51.762;14.320;2024-03-02T00:42:19;99732.16;;;10.10;100.00
7168;BME280;3625;51.762;14.320;2024-03-02T00:44:49;99732.22;;;10.09;100.00
7168;BME280;3625;51.762;14.320;2024-03-02T00:47:17;99722.53;;;10.08;100.00
7168;BME280;3625;51.762;14.320;2024-03-02T00:49:47;99661.25;;;9.69;100.00
7168;BME280;3625;51.762;14.320;2024-03-02T00:52:16;99717.34;;;10.05;100.00
7168;BME280;3625;51.762;14.320;2024-03-02T00:54:45;99721.84;;;10.03;100.00
7168;BME280;3625;51.762;14.320;2024-03-02T00:57:14;99729.84;;;10.00;100.00
7168;BME280;3625;51.762;14.320;2024-03-02T00:59:45;99723.72;;;9.99;100.00
7168;BME280;3625;51.762;14.320;2024-03-02T01:02:14;99718.50;;;9.96;100.00
7168;BME280;3625;51.762;14.320;2024-03-02T01:04:43;99727.28;;;9.97;100.00
7168;BME280;3625;51.762;14.320;2024-03-02T01:07:12;99719.38;;;9.97;100.00
7168;BME280;3625;51.762;14.320;2024-03-02T01:09:43;99727.25;;;9.98;100.00
7168;BME280;3625;51.762;14.320;2024-03-02T01:12:12;99729.84;;;10.00;100.00
7168;BME280;3625;51.762;14.320;2024-03-02T01:14:41;99720.91;;;10.04;100.00
7168;BME280;3625;51.762;14.320;2024-03-02T01:17:11;99721.69;;;10.07;100.00
7168;BME280;3625;51.762;14.320;2024-03-02T01:19:42;99716.34;;;10.09;100.00
7168;BME280;3625;51.762;14.320;2024-03-02T01:22:12;99720.78;;;10.08;100.00
7168;BME280;3625;51.762;14.320;2024-03-02T01:24:41;99722.50;;;10.09;100.00
7168;BME280;3625;51.762;14.320;2024-03-02T01:27:09;99719.81;;;10.11;100.00
7168;BME280;3625;51.762;14.320;2024-03-02T01:29:39;99717.19;;;10.11;100.00
7168;BME280;3625;51.762;14.320;2024-03-02T01:32:10;99725.09;;;10.11;100.00
7168;BME280;3625;51.762;14.320;2024-03-02T01:34:40;99719.81;;;10.11;100.00
7168;BME280;3625;51.762;14.320;2024-03-02T01:37:09;99719.75;;;10.12;100.00
7168;BME280;3625;51.762;14.320;2024-03-02T01:39:38;99711.81;;;10.12;100.00
7168;BME280;3625;51.762;14.320;2024-03-02T01:42:07;99712.69;;;10.13;100.00
7168;BME280;3625;51.762;14.320;2024-03-02T01:44:36;99708.16;;;10.16;100.00
7168;BME280;3625;51.762;14.320;2024-03-02T01:47:05;99713.44;;;10.18;100.00
7168;BME280;3625;51.762;14.320;2024-03-02T01:49:34;99711.66;;;10.18;100.00
7168;BME280;3625;51.762;14.320;2024-03-02T01:52:05;99715.97;;;10.21;100.00
7168;BME280;3625;51.762;14.320;2024-03-02T01:54:34;99707.16;;;10.20;100.00
7168;BME280;3625;51.762;14.320;2024-03-02T01:57:07;99702.72;;;10.23;100.00
7168;BME280;3625;51.762;14.320;2024-03-02T01:59:36;99706.22;;;10.23;100.00
7168;BME280;3625;51.762;14.320;2024-03-02T02:02:05;99709.72;;;10.24;100.00
7168;BME280;3625;51.762;14.320;2024-03-02T02:04:34;99706.16;;;10.25;100.00
7168;BME280;3625;51.762;14.320;2024-03-02T02:07:05;99705.25;;;10.26;100.00
7168;BME280;3625;51.762;14.320;2024-03-02T02:09:34;99704.34;;;10.27;100.00
7168;BME280;3625;51.762;14.320;2024-03-02T02:12:03;99707.88;;;10.27;100.00
7168;BME280;3625;51.762;14.320;2024-03-02T02:14:35;99704.22;;;10.30;100.00
7168;BME280;3625;51.762;14.320;2024-03-02T02:17:05;99709.47;;;10.31;100.00
7168;BME280;3625;51.762;14.320;2024-03-02T02:19:34;99708.56;;;10.32;100.00
7168;BME280;3625;51.762;14.320;2024-03-02T02:22:04;99705.81;;;10.35;100.00
7168;BME280;3625;51.762;14.320;2024-03-02T02:24:33;99701.41;;;10.36;100.00
7168;BME280;3625;51.762;14.320;2024-03-02T02:27:02;99702.28;;;10.36;100.00
7168;BME280;3625;51.762;14.320;2024-03-02T02:29:31;99703.13;;;10.37;100.00
7168;BME280;3625;51.762;14.320;2024-03-02T02:32:00;99705.78;;;10.37;100.00
7168;BME280;3625;51.762;14.320;2024-03-02T02:34:28;99697.78;;;10.38;100.00
7168;BME280;3625;51.762;14.320;2024-03-02T02:36:57;99699.63;;;10.36;100.00
7168;BME280;3625;51.762;14.320;2024-03-02T02:39:28;99700.50;;;10.37;100.00
7168;BME280;3625;51.762;14.320;2024-03-02T02:42:00;99702.16;;;10.39;100.00
7168;BME280;3625;51.762;14.320;2024-03-02T02:44:30;99701.22;;;10.40;100.00
7168;BME280;3625;51.762;14.320;2024-03-02T02:46:59;99700.38;;;10.40;100.00
7168;BME280;3625;51.762;14.320;2024-03-02T02:49:27;99704.78;;;10.39;100.00
7168;BME280;3625;51.762;14.320;2024-03-02T02:51:56;99704.78;;;10.39;100.00
7168;BME280;3625;51.762;14.320;2024-03-02T02:54:30;99698.59;;;10.40;100.00
7168;BME280;3625;51.762;14.320;2024-03-02T02:57:04;99636.41;;;10.02;100.00
7168;BME280;3625;51.762;14.320;2024-03-02T02:59:33;99702.97;;;10.41;100.00
7168;BME280;3625;51.762;14.320;2024-03-02T03:02:04;99695.03;;;10.41;100.00
7168;BME280;3625;51.762;14.320;2024-03-02T03:04:34;99706.38;;;10.45;100.00
7168;BME280;3625;51.762;14.320;2024-03-02T03:07:02;99699.31;;;10.45;100.00
7168;BME280;3625;51.762;14.320;2024-03-02T03:09:33;99695.75;;;10.46;100.00
7168;BME280;3625;51.762;14.320;2024-03-02T03:12:02;99699.19;;;10.48;100.00
7168;BME280;3625;51.762;14.320;2024-03-02T03:14:31;99703.47;;;10.52;100.00
7168;BME280;3625;51.762;14.320;2024-03-02T03:17:00;99696.47;;;10.51;100.00
7168;BME280;3625;51.762;14.320;2024-03-02T03:19:29;99694.72;;;10.50;100.00
7168;BME280;3625;51.762;14.320;2024-03-02T03:21:58;99700.00;;;10.50;100.00
7168;BME280;3625;51.762;14.320;2024-03-02T03:24:27;99689.47;;;10.49;100.00
7168;BME280;3625;51.762;14.320;2024-03-02T03:26:57;99698.22;;;10.51;100.00
7168;BME280;3625;51.762;14.320;2024-03-02T03:29:26;99701.75;;;10.51;100.00
7168;BME280;3625;51.762;14.320;2024-03-02T03:31:55;99695.59;;;10.51;100.00
7168;BME280;3625;51.762;14.320;2024-03-02T03:34:24;99693.81;;;10.51;100.00
7168;BME280;3625;51.762;14.320;2024-03-02T03:36:52;99699.09;;;10.51;100.00
7168;BME280;3625;51.762;14.320;2024-03-02T03:39:21;99693.75;;;10.53;100.00
7168;BME280;3625;51.762;14.320;2024-03-02T03:41:50;99699.00;;;10.54;100.00
7168;BME280;3625;51.762;14.320;2024-03-02T03:44:23;99700.63;;;10.58;100.00
7168;BME280;3625;51.762;14.320;2024-03-02T03:46:52;99702.44;;;10.56;100.00
7168;BME280;3625;51.762;14.320;2024-03-02T03:49:20;99705.03;;;10.58;100.00
7168;BME280;3625;51.762;14.320;2024-03-02T03:51:49;99700.66;;;10.57;100.00
7168;BME280;3625;51.762;14.320;2024-03-02T03:54:18;99699.00;;;10.54;100.00
7168;BME280;3625;51.762;14.320;2024-03-02T03:56:48;99700.84;;;10.52;100.00
7168;BME280;3625;51.762;14.320;2024-03-02T03:59:17;99699.09;;;10.51;100.00
7168;BME280;3625;51.762;14.320;2024-03-02T04:01:49;99699.97;;;10.52;100.00
7168;BME280;3625;51.762;14.320;2024-03-02T04:04:18;99703.53;;;10.51;100.00
7168;BME280;3625;51.762;14.320;2024-03-02T04:06:47;99704.34;;;10.53;100.00
7168;BME280;3625;51.762;14.320;2024-03-02T04:09:16;99702.56;;;10.53;100.00
7168;BME280;3625;51.762;14.320;2024-03-02T04:11:45;99709.59;;;10.54;100.00
7168;BME280;3625;51.762;14.320;2024-03-02T04:14:14;99706.94;;;10.54;100.00
7168;BME280;3625;51.762;14.320;2024-03-02T04:16:43;99699.91;;;10.53;100.00
7168;BME280;3625;51.762;14.320;2024-03-02T04:19:13;99710.44;;;10.55;100.00
7168;BME280;3625;51.762;14.320;2024-03-02T04:21:42;99711.38;;;10.54;100.00
7168;BME280;3625;51.762;14.320;2024-03-02T04:24:10;99714.75;;;10.57;100.00
7168;BME280;3625;51.762;14.320;2024-03-02T04:26:39;99713.84;;;10.58;100.00
7168;BME280;3625;51.762;14.320;2024-03-02T04:29:10;99712.16;;;10.56;100.00
7168;BME280;3625;51.762;14.320;2024-03-02T04:31:39;99708.63;;;10.55;100.00
7168;BME280;3625;51.762;14.320;2024-03-02T04:34:08;99713.03;;;10.56;100.00
7168;BME280;3625;51.762;14.320;2024-03-02T04:36:39;99726.25;;;10.56;100.00
7168;BME280;3625;51.762;14.320;2024-03-02T04:39:08;99718.31;;;10.56;100.00
7168;BME280;3625;51.762;14.320;2024-03-02T04:41:38;99724.50;;;10.55;100.00
7168;BME280;3625;51.762;14.320;2024-03-02T04:44:07;99720.94;;;10.56;100.00
7168;BME280;3625;51.762;14.320;2024-03-02T04:46:36;99723.59;;;10.56;100.00
7168;BME280;3625;51.762;14.320;2024-03-02T04:49:05;99726.25;;;10.56;100.00
7168;BME280;3625;51.762;14.320;2024-03-02T04:51:34;99729.78;;;10.55;100.00
7168;BME280;3625;51.762;14.320;2024-03-02T04:54:04;99734.25;;;10.55;100.00
7168;BME280;3625;51.762;14.320;2024-03-02T04:56:35;99736.91;;;10.55;100.00
7168;BME280;3625;51.762;14.320;2024-03-02T04:59:17;99743.88;;;10.56;100.00
7168;BME280;3625;51.762;14.320;2024-03-02T05:01:46;99747.34;;;10.58;100.00
7168;BME280;3625;51.762;14.320;2024-03-02T05:04:15;99746.53;;;10.56;100.00
7168;BME280;3625;51.762;14.320;2024-03-02T05:06:44;99745.56;;;10.58;100.00
7168;BME280;3625;51.762;14.320;2024-03-02T05:09:19;99750.81;;;10.60;100.00
7168;BME280;3625;51.762;14.320;2024-03-02T05:11:49;99756.97;;;10.61;100.00
7168;BME280;3625;51.762;14.320;2024-03-02T05:14:31;99756.06;;;10.62;100.00
7168;BME280;3625;51.762;14.320;2024-03-02T05:17:00;99755.06;;;10.64;100.00
7168;BME280;3625;51.762;14.320;2024-03-02T05:19:29;99760.31;;;10.66;100.00
7168;BME280;3625;51.762;14.320;2024-03-02T05:21:57;99760.28;;;10.67;100.00
7168;BME280;3625;51.762;14.320;2024-03-02T05:24:28;99756.75;;;10.67;100.00
7168;BME280;3625;51.762;14.320;2024-03-02T05:26:57;99756.81;;;10.65;100.00
7168;BME280;3625;51.762;14.320;2024-03-02T05:29:25;99753.41;;;10.62;100.00
7168;BME280;3625;51.762;14.320;2024-03-02T05:31:56;99757.84;;;10.61;100.00
7168;BME280;3625;51.762;14.320;2024-03-02T05:34:24;99589.19;;;9.65;100.00
7168;BME280;3625;51.762;14.320;2024-03-02T05:36:53;99757.94;;;10.58;100.00
7168;BME280;3625;51.762;14.320;2024-03-02T05:39:22;99757.97;;;10.56;100.00
7168;BME280;3625;51.762;14.320;2024-03-02T05:41:52;99756.19;;;10.57;100.00
7168;BME280;3625;51.762;14.320;2024-03-02T05:44:21;99769.44;;;10.57;100.00
7168;BME280;3625;51.762;14.320;2024-03-02T05:46:50;99770.25;;;10.59;100.00
7168;BME280;3625;51.762;14.320;2024-03-02T05:49:18;99768.50;;;10.58;100.00
7168;BME280;3625;51.762;14.320;2024-03-02T05:51:47;99777.31;;;10.58;100.00
7168;BME280;3625;51.762;14.320;2024-03-02T05:54:16;99773.72;;;10.61;100.00
7168;BME280;3625;51.762;14.320;2024-03-02T05:56:51;99771.88;;;10.63;100.00
7168;BME280;3625;51.762;14.320;2024-03-02T05:59:20;99727.88;;;10.34;100.00
7168;BME280;3625;51.762;14.320;2024-03-02T06:01:49;99785.03;;;10.65;100.00
7168;BME280;3625;51.762;14.320;2024-03-02T06:04:19;99794.75;;;10.64;100.00
7168;BME280;3625;51.762;14.320;2024-03-02T06:06:48;99799.09;;;10.67;100.00
7168;BME280;3625;51.762;14.320;2024-03-02T06:09:17;99791.97;;;10.69;100.00
7168;BME280;3625;51.762;14.320;2024-03-02T06:11:48;99798.03;;;10.72;100.00
7168;BME280;3625;51.762;14.320;2024-03-02T06:14:18;99790.88;;;10.74;100.00
7168;BME280;3625;51.762;14.320;2024-03-02T06:16:47;99795.28;;;10.75;100.00
7168;BME280;3625;51.762;14.320;2024-03-02T06:19:15;99795.22;;;10.77;100.00
7168;BME280;3625;51.762;14.320;2024-03-02T06:21:45;99791.50;;;10.82;100.00
7168;BME280;3625;51.762;14.320;2024-03-02T06:24:14;99794.03;;;10.85;100.00
7168;BME280;3625;51.762;14.320;2024-03-02T06:26:43;99803.66;;;10.88;100.00
7168;BME280;3625;51.762;14.320;2024-03-02T06:29:12;99786.38;;;10.78;100.00
7168;BME280;3625;51.762;14.320;2024-03-02T06:31:42;99812.41;;;10.90;100.00
7168;BME280;3625;51.762;14.320;2024-03-02T06:34:11;99810.63;;;10.90;100.00
7168;BME280;3625;51.762;14.320;2024-03-02T06:36:40;99818.47;;;10.93;100.00
7168;BME280;3625;51.762;14.320;2024-03-02T06:39:09;99817.59;;;10.93;100.00
7168;BME280;3625;51.762;14.320;2024-03-02T06:41:40;99821.06;;;10.95;100.00
7168;BME280;3625;51.762;14.320;2024-03-02T06:44:10;99826.31;;;10.96;100.00
7168;BME280;3625;51.762;14.320;2024-03-02T06:46:39;99833.25;;;10.99;100.00
7168;BME280;3625;51.762;14.320;2024-03-02T06:49:09;99829.69;;;11.00;100.00
7168;BME280;3625;51.762;14.320;2024-03-02T06:51:38;99830.53;;;11.02;100.00
7168;BME280;3625;51.762;14.320;2024-03-02T06:54:07;99833.16;;;11.02;100.00
7168;BME280;3625;51.762;14.320;2024-03-02T06:56:36;99831.38;;;11.03;100.00
7168;BME280;3625;51.762;14.320;2024-03-02T06:59:09;99837.53;;;11.03;100.00
7168;BME280;3625;51.762;14.320;2024-03-02T07:01:38;99838.47;;;11.02;100.00
7168;BME280;3625;51.762;14.320;2024-03-02T07:04:08;99837.53;;;11.03;100.00
7168;BME280;3625;51.762;14.320;2024-03-02T07:06:37;99832.22;;;11.05;100.00
7168;BME280;3625;51.762;14.320;2024-03-02T07:09:06;99840.03;;;11.08;100.00
7168;BME280;3625;51.762;14.320;2024-03-02T07:11:38;99846.13;;;11.10;100.00
7168;BME280;3625;51.762;14.320;2024-03-02T07:14:07;99839.09;;;11.09;100.00
7168;BME280;3625;51.762;14.320;2024-03-02T07:16:38;99844.34;;;11.10;100.00
7168;BME280;3625;51.762;14.320;2024-03-02T07:19:09;99850.47;;;11.12;100.00
7168;BME280;3625;51.762;14.320;2024-03-02T07:21:38;99846.91;;;11.13;100.00
7168;BME280;3625;51.762;14.320;2024-03-02T07:24:07;99849.38;;;11.18;100.00
7168;BME280;3625;51.762;14.320;2024-03-02T07:26:40;99854.53;;;11.22;100.00
7168;BME280;3625;51.762;14.320;2024-03-02T07:29:12;99851.03;;;11.22;100.00
7168;BME280;3625;51.762;14.320;2024-03-02T07:31:41;99846.66;;;11.21;100.00
7168;BME280;3625;51.762;14.320;2024-03-02T07:34:11;99857.94;;;11.26;100.00
7168;BME280;3625;51.762;14.320;2024-03-02T07:36:41;99856.88;;;11.31;100.00
7168;BME280;3625;51.762;14.320;2024-03-02T07:39:09;99858.66;;;11.31;100.00
7168;BME280;3625;51.762;14.320;2024-03-02T07:41:38;99858.44;;;11.37;100.00
7168;BME280;3625;51.762;14.320;2024-03-02T07:44:07;99860.84;;;11.43;100.00
7168;BME280;3625;51.762;14.320;2024-03-02T07:46:36;99868.53;;;11.51;100.00
7168;BME280;3625;51.762;14.320;2024-03-02T07:49:08;99874.50;;;11.57;100.00
7168;BME280;3625;51.762;14.320;2024-03-02T07:51:38;99876.22;;;11.58;100.00
7168;BME280;3625;51.762;14.320;2024-03-02T07:54:10;99890.25;;;11.60;100.00
7168;BME280;3625;51.762;14.320;2024-03-02T07:56:39;99886.81;;;11.58;100.00
7168;BME280;3625;51.762;14.320;2024-03-02T07:59:10;99892.13;;;11.58;100.00
7168;BME280;3625;51.762;14.320;2024-03-02T08:01:40;99886.00;;;11.56;100.00
7168;BME280;3625;51.762;14.320;2024-03-02T08:04:09;99854.13;;;11.33;100.00
7168;BME280;3625;51.762;14.320;2024-03-02T08:06:39;99897.41;;;11.58;100.00
7168;BME280;3625;51.762;14.320;2024-03-02T08:09:08;99899.94;;;11.61;100.00
7168;BME280;3625;51.762;14.320;2024-03-02T08:11:40;99901.63;;;11.64;100.00
7168;BME280;3625;51.762;14.320;2024-03-02T08:14:08;99908.59;;;11.66;100.00
7168;BME280;3625;51.762;14.320;2024-03-02T08:16:37;99882.91;;;11.44;100.00
7168;BME280;3625;51.762;14.320;2024-03-02T08:19:07;99886.19;;;11.50;100.00
7168;BME280;3625;51.762;14.320;2024-03-02T08:21:36;99906.00;;;11.65;100.00
7168;BME280;3625;51.762;14.320;2024-03-02T08:24:07;99910.34;;;11.67;100.00
7168;BME280;3625;51.762;14.320;2024-03-02T08:26:36;99907.75;;;11.66;100.00
7168;BME280;3625;51.762;14.320;2024-03-02T08:29:08;99912.00;;;11.70;100.00
7168;BME280;3625;51.762;14.320;2024-03-02T08:31:39;99909.22;;;11.75;100.00
7168;BME280;3625;51.762;14.320;2024-03-02T08:34:09;99917.72;;;11.84;100.00
7168;BME280;3625;51.762;14.320;2024-03-02T08:36:38;99916.56;;;11.91;100.00
7168;BME280;3625;51.762;14.320;2024-03-02T08:39:09;99914.66;;;11.95;100.00
7168;BME280;3625;51.762;14.320;2024-03-02T08:41:44;99920.63;;;12.01;100.00
7168;BME280;3625;51.762;14.320;2024-03-02T08:44:13;99922.22;;;12.05;100.00
7168;BME280;3625;51.762;14.320;2024-03-02T08:46:42;99927.38;;;12.10;100.00
7168;BME280;3625;51.762;14.320;2024-03-02T08:49:12;99920.44;;;12.06;100.00
7168;BME280;3625;51.762;14.320;2024-03-02T08:51:41;99919.41;;;12.10;100.00
7168;BME280;3625;51.762;14.320;2024-03-02T08:54:11;99918.13;;;12.20;100.00
7168;BME280;3625;51.762;14.320;2024-03-02T08:56:41;99923.81;;;12.34;100.00
7168;BME280;3625;51.762;14.320;2024-03-02T08:59:10;99930.75;;;12.37;100.00
7168;BME280;3625;51.762;14.320;2024-03-02T09:01:39;99929.97;;;12.35;100.00
7168;BME280;3625;51.762;14.320;2024-03-02T09:04:09;99939.88;;;12.30;100.00
7168;BME280;3625;51.762;14.320;2024-03-02T09:06:38;99943.56;;;12.26;100.00
7168;BME280;3625;51.762;14.320;2024-03-02T09:09:08;99943.88;;;12.18;100.00
7168;BME280;3625;51.762;14.320;2024-03-02T09:11:38;99948.47;;;12.13;100.00
7168;BME280;3625;51.762;14.320;2024-03-02T09:14:07;99942.34;;;12.11;100.00
7168;BME280;3625;51.762;14.320;2024-03-02T09:16:40;99941.59;;;12.07;100.00
7168;BME280;3625;51.762;14.320;2024-03-02T09:19:08;99945.13;;;12.08;100.00
7168;BME280;3625;51.762;14.320;2024-03-02T09:21:38;99948.63;;;12.08;100.00
7168;BME280;3625;51.762;14.320;2024-03-02T09:24:07;99950.56;;;12.03;100.00
7168;BME280;3625;51.762;14.320;2024-03-02T09:26:35;99951.63;;;11.99;100.00
7168;BME280;3625;51.762;14.320;2024-03-02T09:29:06;99952.50;;;12.00;100.00
7168;BME280;3625;51.762;14.320;2024-03-02T09:31:39;99951.38;;;12.05;100.00
7168;BME280;3625;51.762;14.320;2024-03-02T09:34:08;99952.94;;;12.11;100.00
7168;BME280;3625;51.762;14.320;2024-03-02T09:36:37;99947.66;;;12.34;100.00
7168;BME280;3625;51.762;14.320;2024-03-02T09:39:08;99902.53;;;12.36;100.00
7168;BME280;3625;51.762;14.320;2024-03-02T09:41:37;99946.31;;;13.14;100.00
7168;BME280;3625;51.762;14.320;2024-03-02T09:44:08;99959.72;;;13.53;100.00
7168;BME280;3625;51.762;14.320;2024-03-02T09:46:37;99960.59;;;13.54;100.00
7168;BME280;3625;51.762;14.320;2024-03-02T09:49:06;99961.06;;;13.64;100.00
7168;BME280;3625;51.762;14.320;2024-03-02T09:51:35;99962.25;;;13.97;100.00
7168;BME280;3625;51.762;14.320;2024-03-02T09:54:04;99919.91;;;13.92;100.00
7168;BME280;3625;51.762;14.320;2024-03-02T09:56:48;99972.91;;;14.36;100.00
7168;BME280;3625;51.762;14.320;2024-03-02T09:59:18;99973.19;;;14.30;100.00
7168;BME280;3625;51.762;14.320;2024-03-02T10:01:58;99972.59;;;14.23;100.00
7168;BME280;3625;51.762;14.320;2024-03-02T10:04:30;99966.28;;;14.26;100.00
7168;BME280;3625;51.762;14.320;2024-03-02T10:07:14;99966.94;;;14.51;100.00
7168;BME280;3625;51.762;14.320;2024-03-02T10:09:44;99954.47;;;14.89;100.00
7168;BME280;3625;51.762;14.320;2024-03-02T10:12:15;99958.34;;;14.82;100.00
7168;BME280;3625;51.762;14.320;2024-03-02T10:14:46;99957.13;;;14.89;100.00
7168;BME280;3625;51.762;14.320;2024-03-02T10:17:18;99965.28;;;14.67;100.00
7168;BME280;3625;51.762;14.320;2024-03-02T10:19:46;99967.06;;;14.28;100.00
7168;BME280;3625;51.762;14.320;2024-03-02T10:22:15;99969.03;;;14.24;100.00
7168;BME280;3625;51.762;14.320;2024-03-02T10:24:44;99958.38;;;14.24;100.00
7168;BME280;3625;51.762;14.320;2024-03-02T10:27:16;99923.13;;;14.19;100.00
7168;BME280;3625;51.762;14.320;2024-03-02T10:29:48;99964.91;;;14.75;100.00
7168;BME280;3625;51.762;14.320;2024-03-02T10:32:17;99959.53;;;14.95;100.00
7168;BME280;3625;51.762;14.320;2024-03-02T10:34:46;99955.31;;;15.08;100.00
7168;BME280;3625;51.762;14.320;2024-03-02T10:37:16;99908.56;;;14.84;100.00
7168;BME280;3625;51.762;14.320;2024-03-02T10:39:46;99957.84;;;15.12;100.00
7168;BME280;3625;51.762;14.320;2024-03-02T10:42:19;99946.72;;;14.85;100.00
7168;BME280;3625;51.762;14.320;2024-03-02T10:44:52;99950.97;;;15.06;100.00
7168;BME280;3625;51.762;14.320;2024-03-02T10:47:22;99953.63;;;15.25;100.00
7168;BME280;3625;51.762;14.320;2024-03-02T10:49:52;99957.47;;;15.36;100.00
7168;BME280;3625;51.762;14.320;2024-03-02T10:52:21;99957.72;;;15.49;100.00
7168;BME280;3625;51.762;14.320;2024-03-02T10:54:50;99958.88;;;15.62;100.00
7168;BME280;3625;51.762;14.320;2024-03-02T10:57:22;99908.78;;;15.33;100.00
7168;BME280;3625;51.762;14.320;2024-03-02T11:00:03;99959.34;;;15.70;100.00
7168;BME280;3625;51.762;14.320;2024-03-02T11:02:34;99962.53;;;15.60;100.00
7168;BME280;3625;51.762;14.320;2024-03-02T11:05:09;99970.09;;;15.50;100.00
7168;BME280;3625;51.762;14.320;2024-03-02T11:07:40;99965.53;;;15.54;100.00
7168;BME280;3625;51.762;14.320;2024-03-02T11:10:09;99965.47;;;15.90;100.00
7168;BME280;3625;51.762;14.320;2024-03-02T11:12:46;99936.06;;;16.24;100.00
7168;BME280;3625;51.762;14.320;2024-03-02T11:15:19;99910.00;;;16.12;100.00
7168;BME280;3625;51.762;14.320;2024-03-02T11:17:50;99964.63;;;16.22;100.00
7168;BME280;3625;51.762;14.320;2024-03-02T11:20:19;99953.94;;;16.22;100.00
7168;BME280;3625;51.762;14.320;2024-03-02T11:22:48;99952.25;;;16.37;100.00
7168;BME280;3625;51.762;14.320;2024-03-02T11:25:24;99948.91;;;16.33;100.00
7168;BME280;3625;51.762;14.320;2024-03-02T11:28:04;99953.25;;;16.51;100.00
7168;BME280;3625;51.762;14.320;2024-03-02T11:30:56;99919.03;;;16.42;100.00
7168;BME280;3625;51.762;14.320;2024-03-02T11:33:26;99855.78;;;16.11;100.00
7168;BME280;3625;51.762;14.320;2024-03-02T11:35:58;99945.91;;;16.55;100.00
7168;BME280;3625;51.762;14.320;2024-03-02T11:38:31;99946.16;;;16.68;100.00
7168;BME280;3625;51.762;14.320;2024-03-02T11:41:02;99949.06;;;16.79;100.00
7168;BME280;3625;51.762;14.320;2024-03-02T11:43:31;99947.72;;;16.54;99.28
7168;BME280;3625;51.762;14.320;2024-03-02T11:46:05;99921.38;;;16.15;100.00
7168;BME280;3625;51.762;14.320;2024-03-02T11:48:36;99945.38;;;15.82;100.00
7168;BME280;3625;51.762;14.320;2024-03-02T11:51:06;99943.06;;;15.92;100.00
7168;BME280;3625;51.762;14.320;2024-03-02T11:53:38;99950.44;;;16.04;100.00
7168;BME280;3625;51.762;14.320;2024-03-02T11:56:09;99953.72;;;16.09;100.00
7168;BME280;3625;51.762;14.320;2024-03-02T11:58:41;99950.53;;;16.03;100.00
7168;BME280;3625;51.762;14.320;2024-03-02T12:01:12;99947.53;;;15.92;100.00
7168;BME280;3625;51.762;14.320;2024-03-02T12:03:42;99949.13;;;15.78;100.00
7168;BME280;3625;51.762;14.320;2024-03-02T12:06:12;99942.78;;;15.81;100.00
7168;BME280;3625;51.762;14.320;2024-03-02T12:08:41;99950.38;;;16.06;100.00
7168;BME280;3625;51.762;14.320;2024-03-02T12:11:13;99952.06;;;16.24;100.00
7168;BME280;3625;51.762;14.320;2024-03-02T12:13:52;99903.38;;;16.19;100.00
7168;BME280;3625;51.762;14.320;2024-03-02T12:16:25;99942.47;;;16.53;100.00
7168;BME280;3625;51.762;14.320;2024-03-02T12:18:55;99937.75;;;16.58;100.00
7168;BME280;3625;51.762;14.320;2024-03-02T12:21:24;99941.34;;;16.57;100.00
7168;BME280;3625;51.762;14.320;2024-03-02T12:23:54;99933.09;;;16.62;100.00
7168;BME280;3625;51.762;14.320;2024-03-02T12:26:23;99931.53;;;16.57;100.00
7168;BME280;3625;51.762;14.320;2024-03-02T12:28:55;99937.31;;;16.50;100.00
7168;BME280;3625;51.762;14.320;2024-03-02T12:31:25;99936.44;;;16.49;100.00
7168;BME280;3625;51.762;14.320;2024-03-02T12:33:55;99931.03;;;16.51;100.00
7168;BME280;3625;51.762;14.320;2024-03-02T12:36:24;99936.44;;;16.49;100.00
7168;BME280;3625;51.762;14.320;2024-03-02T12:38:53;99935.91;;;16.43;100.00
7168;BME280;3625;51.762;14.320;2024-03-02T12:41:22;99885.84;;;16.15;100.00
7168;BME280;3625;51.762;14.320;2024-03-02T12:43:53;99932.09;;;16.31;100.00
7168;BME280;3625;51.762;14.320;2024-03-02T12:46:22;99935.13;;;16.41;100.00
7168;BME280;3625;51.762;14.320;2024-03-02T12:48:53;99932.81;;;16.50;100.00
7168;BME280;3625;51.762;14.320;2024-03-02T12:51:22;99914.88;;;16.37;100.00
7168;BME280;3625;51.762;14.320;2024-03-02T12:53:54;99904.91;;;16.40;100.00
7168;BME280;3625;51.762;14.320;2024-03-02T12:56:24;99926.59;;;16.67;100.00
7168;BME280;3625;51.762;14.320;2024-03-02T12:59:00;99934.41;;;16.70;100.00
7168;BME280;3625;51.762;14.320;2024-03-02T13:01:29;99928.19;;;16.70;100.00
7168;BME280;3625;51.762;14.320;2024-03-02T13:03:59;99930.78;;;16.87;100.00
7168;BME280;3625;51.762;14.320;2024-03-02T13:06:29;99931.31;;;16.78;92.71
7168;BME280;3625;51.762;14.320;2024-03-02T13:08:58;99930.19;;;16.82;100.00
7168;BME280;3625;51.762;14.320;2024-03-02T13:11:26;99932.16;;;16.78;99.06
7168;BME280;3625;51.762;14.320;2024-03-02T13:13:55;99927.34;;;16.69;96.79
7168;BME280;3625;51.762;14.320;2024-03-02T13:16:24;99931.31;;;16.62;94.42